»·PEaware :: N786SC KSMX-KBFL

N786SC :: KSMX-KBFL

FLIGHT INFORMATION

Flight Status: Arrived
Operator: Privately registered:
United States
More flights under this callsign
Pilot: Jereme M. (20698)
Aircraft: CESSNA 172 SKYHAWK
(C172)
More flights by this aircraft type
Origin: KSMX Santa Maria Pub/Capt Hancock
United States
Destination: KBFL Meadows
United States
More flights between these airports :: More routes between these airports
Route: FLW
File this flight plan on PilotEdge
Remarks: CAT-05
Altitude:
(Current/Filed)
7,500ft
Speed:
(Current/Filed)
110kts
Departed: 07-Oct-18 03:53 PM
Arrived: 07-Oct-18 04:41 PM
Distance/Time
Traveled:
76nm/0:48
Distance/Time
To Go:
Arrived

Flight Plot

Page will automatically refresh every two minutes.


Map Options




Map Legend


Flown Route
Filed Route
Departure Airport
Arrival Airport
Navaid (VOR, NDB)
Fix

Horizontal Profiles

Position Reports

Time Latitude Longitude Heading Altitude Ground
Speed
07-Oct-18 15:21 34.901606 -120.452226 228 265ft 0kts
07-Oct-18 15:22 34.901606 -120.452226 228 265ft 0kts
07-Oct-18 15:23 34.901606 -120.452226 228 265ft 0kts
07-Oct-18 15:24 34.901606 -120.452226 228 265ft 0kts
07-Oct-18 15:25 34.901606 -120.452226 228 265ft 0kts
07-Oct-18 15:26 34.901606 -120.452226 228 265ft 0kts
07-Oct-18 15:27 34.901606 -120.452226 228 265ft 0kts
07-Oct-18 15:28 34.901606 -120.452226 228 265ft 0kts
07-Oct-18 15:29 34.901606 -120.452226 228 265ft 0kts
07-Oct-18 15:30 34.901606 -120.452226 228 265ft 0kts
07-Oct-18 15:31 34.901606 -120.452226 228 265ft 0kts
07-Oct-18 15:32 34.901606 -120.452226 228 265ft 0kts
07-Oct-18 15:33 34.901606 -120.452226 228 265ft 0kts
07-Oct-18 15:34 34.901606 -120.452226 228 265ft 0kts
07-Oct-18 15:35 34.901606 -120.452226 228 265ft 0kts
07-Oct-18 15:36 34.901606 -120.452226 228 265ft 0kts
07-Oct-18 15:37 34.901606 -120.452226 228 265ft 0kts
07-Oct-18 15:38 34.901606 -120.452226 228 265ft 0kts
07-Oct-18 15:39 34.901606 -120.452226 228 265ft 0kts
07-Oct-18 15:40 34.901606 -120.452226 228 265ft 0kts
07-Oct-18 15:41 34.901606 -120.452226 228 265ft 0kts
07-Oct-18 15:42 34.901606 -120.452226 228 265ft 0kts
07-Oct-18 15:43 34.901606 -120.452226 228 265ft 0kts
07-Oct-18 15:44 34.901606 -120.452226 228 265ft 0kts
07-Oct-18 15:45 34.901606 -120.452226 228 265ft 0kts
07-Oct-18 15:46 34.901606 -120.452226 228 265ft 0kts
07-Oct-18 15:47 34.901606 -120.452226 228 265ft 0kts
07-Oct-18 15:48 34.901606 -120.452226 228 265ft 0kts
07-Oct-18 15:49 34.901606 -120.452226 228 265ft 0kts
07-Oct-18 15:50 34.901606 -120.452226 228 265ft 0kts
07-Oct-18 15:51 34.900623 -120.452706 131 265ft 12kts
07-Oct-18 15:52 34.896285 -120.447489 135 265ft 28kts
07-Oct-18 15:53 34.893230 -120.444953 180 265ft 0kts
07-Oct-18 15:54 34.893049 -120.445002 203 265ft 7kts
07-Oct-18 15:55 34.901956 -120.455102 321 659ft 73kts
07-Oct-18 15:56 34.917977 -120.461025 96 1443ft 87kts
07-Oct-18 15:57 34.918011 -120.434668 74 2311ft 81kts
07-Oct-18 15:58 34.925527 -120.410564 68 3068ft 79kts
07-Oct-18 15:59 34.932511 -120.388531 68 3682ft 82kts
07-Oct-18 16:00 34.940699 -120.362471 68 4381ft 82kts
07-Oct-18 16:01 34.948777 -120.336565 68 5067ft 82kts
07-Oct-18 16:02 34.957111 -120.309585 68 5670ft 86kts
07-Oct-18 16:03 34.965571 -120.281963 69 6270ft 87kts
07-Oct-18 16:04 34.973845 -120.254705 69 6867ft 85kts
07-Oct-18 16:05 34.981805 -120.228325 69 7463ft 80kts
07-Oct-18 16:06 34.991212 -120.196797 70 7546ft 111kts
07-Oct-18 16:07 34.999921 -120.167130 70 7547ft 111kts
07-Oct-18 16:08 35.010338 -120.131348 70 7547ft 112kts
07-Oct-18 16:09 35.022430 -120.089536 70 7547ft 112kts
07-Oct-18 16:10 35.030855 -120.060075 70 7546ft 112kts
07-Oct-18 16:11 35.041094 -120.024062 70 7546ft 112kts
07-Oct-18 16:12 35.051217 -119.988147 70 7546ft 112kts
07-Oct-18 16:13 35.061254 -119.952235 71 7546ft 112kts
07-Oct-18 16:14 35.071258 -119.916140 71 7546ft 112kts
07-Oct-18 16:15 35.081153 -119.880131 71 7546ft 112kts
07-Oct-18 16:16 35.090993 -119.844013 71 7546ft 112kts
07-Oct-18 16:17 35.102934 -119.810228 59 7546ft 112kts
07-Oct-18 16:18 35.118337 -119.777802 59 7546ft 112kts
07-Oct-18 16:19 35.133021 -119.744326 61 7546ft 112kts
07-Oct-18 16:20 35.147586 -119.710649 61 7545ft 112kts
07-Oct-18 16:21 35.162059 -119.676971 62 7545ft 112kts
07-Oct-18 16:22 35.176404 -119.643398 62 7545ft 112kts
07-Oct-18 16:23 35.191032 -119.608842 62 6922ft 113kts
07-Oct-18 16:24 35.205238 -119.575074 62 6122ft 111kts
07-Oct-18 16:25 35.219044 -119.542040 62 5324ft 109kts
07-Oct-18 16:26 35.232717 -119.509106 62 4523ft 108kts
07-Oct-18 16:27 35.246779 -119.476614 60 3747ft 108kts
07-Oct-18 16:28 35.261524 -119.444885 60 3046ft 107kts
07-Oct-18 16:29 35.275631 -119.414357 60 2619ft 96kts
07-Oct-18 16:30 35.289164 -119.384972 60 2622ft 103kts
07-Oct-18 16:31 35.303208 -119.353198 63 2625ft 109kts
07-Oct-18 16:32 35.317836 -119.320065 61 2626ft 113kts
07-Oct-18 16:33 35.333164 -119.286033 61 2626ft 114kts
07-Oct-18 16:34 35.348547 -119.251644 61 2626ft 114kts
07-Oct-18 16:35 35.363770 -119.217386 61 2626ft 114kts
07-Oct-18 16:36 35.378788 -119.183282 61 2443ft 114kts
07-Oct-18 16:37 35.390393 -119.147058 78 1942ft 115kts
07-Oct-18 16:38 35.394740 -119.110195 82 1515ft 94kts
07-Oct-18 16:39 35.394874 -119.080614 79 1512ft 93kts
07-Oct-18 16:40 35.400985 -119.051418 72 1345ft 85kts
07-Oct-18 16:41 35.412804 -119.032972 353 958ft 76kts
07-Oct-18 16:42 35.427299 -119.048251 316 548ft 60kts
07-Oct-18 16:43 35.435691 -119.058110 354 510ft 16kts
07-Oct-18 16:44 35.436261 -119.057810 63 510ft 0kts
07-Oct-18 16:45 35.436261 -119.057810 63 510ft 0kts
07-Oct-18 16:46 35.435921 -119.056518 137 510ft 10kts
07-Oct-18 16:47 35.433272 -119.053341 140 510ft 15kts
07-Oct-18 16:48 35.430156 -119.049508 136 510ft 16kts
07-Oct-18 16:49 35.428423 -119.045171 129 510ft 15kts
07-Oct-18 16:50 35.424841 -119.043027 105 510ft 6kts
07-Oct-18 16:51 35.424709 -119.042221 357 510ft 0kts
07-Oct-18 16:52 35.424709 -119.042221 357 510ft 0kts
07-Oct-18 16:53 35.424709 -119.042221 357 510ft 0kts
07-Oct-18 16:54 35.424709 -119.042221 357 510ft 0kts
07-Oct-18 16:55 35.424709 -119.042221 357 510ft 0kts
07-Oct-18 16:56 35.424709 -119.042221 357 510ft 0kts
07-Oct-18 16:57 35.424709 -119.042221 357 510ft 0kts

Navigation Log

Ident Type
1. KSMX Airport
2. FLW Navaid
3. KBFL Airport